createdAt,value
2023-01-04T00:00:29.103Z,0.00
2023-01-04T00:07:47.882Z,0.00
2023-01-04T00:08:50.968Z,0.00
2023-01-04T00:09:54.227Z,0.00
2023-01-04T00:10:57.426Z,0.00
2023-01-04T00:12:01.039Z,0.00
2023-01-04T00:13:04.099Z,0.00
2023-01-04T00:14:07.676Z,0.00
2023-01-04T00:15:10.749Z,0.00
2023-01-04T00:16:14.077Z,0.00
2023-01-04T00:17:17.534Z,0.00
2023-01-04T00:18:21.034Z,0.00
2023-01-04T00:19:24.841Z,0.00
2023-01-04T00:20:28.716Z,0.00
2023-01-04T00:21:32.019Z,0.00
2023-01-04T00:22:35.369Z,0.00
2023-01-04T00:23:38.666Z,0.00
2023-01-04T00:24:41.948Z,0.00
2023-01-04T00:25:45.162Z,0.00
2023-01-04T00:26:48.310Z,0.00
2023-01-04T00:27:51.927Z,0.00
2023-01-04T00:28:55.600Z,0.00
2023-01-04T00:29:58.804Z,0.00
2023-01-04T00:31:02.427Z,0.00
2023-01-04T00:32:05.885Z,0.00
2023-01-04T00:33:08.955Z,0.00
2023-01-04T00:34:12.336Z,0.00
2023-01-04T00:35:40.033Z,0.00
2023-01-04T00:36:20.449Z,0.00
2023-01-04T00:37:24.056Z,0.00
2023-01-04T00:38:27.613Z,0.00
2023-01-04T00:39:31.739Z,0.00
2023-01-04T00:40:35.412Z,0.00
2023-01-04T00:42:43.407Z,0.00
2023-01-04T00:43:46.888Z,0.00
2023-01-04T00:44:50.617Z,0.00
2023-01-04T00:45:54.253Z,0.00
2023-01-04T00:46:57.472Z,0.00
2023-01-04T00:48:00.553Z,0.00
2023-01-04T00:49:03.637Z,0.00
2023-01-04T00:50:06.722Z,0.00
2023-01-04T00:51:09.894Z,0.00
2023-01-04T00:52:13.273Z,0.00
2023-01-04T00:53:16.273Z,0.00
2023-01-04T00:54:19.301Z,0.33
2023-01-04T00:55:23.244Z,0.00
2023-01-04T00:56:26.617Z,0.00
2023-01-04T00:57:30.034Z,0.00
2023-01-04T00:58:33.394Z,0.00
2023-01-04T00:59:36.586Z,0.00
2023-01-04T01:00:39.655Z,0.00
2023-01-04T01:01:43.185Z,0.00
2023-01-04T01:02:47.232Z,0.00
2023-01-04T01:03:50.887Z,0.00
2023-01-04T01:04:54.017Z,0.00
2023-01-04T01:05:57.504Z,0.00
2023-01-04T01:07:00.588Z,0.00
2023-01-04T01:08:03.891Z,0.00
2023-01-04T01:09:07.069Z,0.00
2023-01-04T01:10:10.354Z,0.00
2023-01-04T01:11:13.105Z,0.00
2023-01-04T01:12:16.309Z,0.00
2023-01-04T01:13:19.682Z,0.00
2023-01-04T01:14:22.964Z,0.00
2023-01-04T01:15:26.249Z,0.00
2023-01-04T01:17:33.634Z,0.00
2023-01-04T01:18:37.148Z,0.00
2023-01-04T01:19:40.228Z,0.00
2023-01-04T01:20:43.608Z,0.00
2023-01-04T01:21:46.987Z,0.00
2023-01-04T01:22:50.261Z,0.00
2023-01-04T01:23:53.512Z,0.00
2023-01-04T01:24:56.834Z,0.00
2023-01-04T01:26:00.033Z,0.00
2023-01-04T01:27:03.292Z,0.00
2023-01-04T01:28:06.270Z,0.00
2023-01-04T01:29:10.171Z,0.00
2023-01-04T01:30:13.663Z,0.00
2023-01-04T01:31:17.172Z,0.00
2023-01-04T01:32:20.654Z,0.00
2023-01-04T01:33:23.952Z,0.00
2023-01-04T01:34:27.308Z,0.00
2023-01-04T01:35:30.693Z,0.00
2023-01-04T01:36:34.100Z,0.00
2023-01-04T01:37:37.886Z,0.00
2023-01-04T01:38:41.492Z,0.00
2023-01-04T01:39:44.968Z,0.00
2023-01-04T01:40:48.550Z,0.00
2023-01-04T01:41:52.054Z,0.00
2023-01-04T01:42:55.649Z,0.00
2023-01-04T01:43:59.237Z,0.00
2023-01-04T01:45:02.611Z,0.00
2023-01-04T01:46:06.057Z,0.43
2023-01-04T01:47:09.596Z,0.43
2023-01-04T01:48:12.865Z,0.00
2023-01-04T01:49:16.222Z,0.00
2023-01-04T01:50:19.857Z,0.00
2023-01-04T01:51:23.851Z,0.00
2023-01-04T01:52:27.371Z,0.00
2023-01-04T01:53:30.637Z,0.00
2023-01-04T01:54:33.710Z,0.00
2023-01-04T01:55:36.789Z,0.00
2023-01-04T01:56:39.849Z,0.00
2023-01-04T01:57:42.797Z,0.00
2023-01-04T01:58:45.875Z,0.00
2023-01-04T01:59:50.756Z,0.00
2023-01-04T02:00:53.836Z,0.00
2023-01-04T02:01:56.987Z,0.00
2023-01-04T02:03:00.300Z,0.00
2023-01-04T02:04:03.763Z,0.00
2023-01-04T02:05:06.957Z,0.00
2023-01-04T02:06:10.273Z,0.00
2023-01-04T02:07:13.543Z,0.00
2023-01-04T02:08:17.102Z,0.00
2023-01-04T02:09:20.407Z,0.00
2023-01-04T02:10:23.488Z,0.00
2023-01-04T02:11:26.647Z,0.00
2023-01-04T02:12:29.941Z,0.00
2023-01-04T02:13:33.123Z,0.00
2023-01-04T02:14:36.309Z,0.00
2023-01-04T02:15:39.540Z,0.00
2023-01-04T02:16:42.548Z,0.00
2023-01-04T02:17:45.783Z,0.00
2023-01-04T02:18:49.111Z,0.00
2023-01-04T02:19:52.736Z,0.00
2023-01-04T02:20:56.021Z,0.00
2023-01-04T02:21:59.100Z,0.00
2023-01-04T02:23:02.395Z,0.00
2023-01-04T02:24:05.439Z,0.00
2023-01-04T02:25:08.852Z,0.00
2023-01-04T02:26:12.255Z,0.00
2023-01-04T02:27:15.462Z,0.00
2023-01-04T02:28:18.711Z,0.29
2023-01-04T02:29:22.189Z,0.00
2023-01-04T02:30:25.591Z,0.00
2023-01-04T02:31:28.599Z,0.00
2023-01-04T02:32:31.762Z,0.00
2023-01-04T02:33:34.909Z,0.00
2023-01-04T02:34:38.199Z,0.00
2023-01-04T02:35:41.708Z,0.00
2023-01-04T02:36:45.021Z,0.00
2023-01-04T02:37:48.259Z,0.00
2023-01-04T02:38:51.953Z,0.00
2023-01-04T02:39:55.015Z,0.00
2023-01-04T02:40:58.115Z,0.00
2023-01-04T02:42:01.185Z,0.00
2023-01-04T02:43:04.249Z,0.00
2023-01-04T02:44:07.354Z,0.00
2023-01-04T02:45:10.535Z,0.00
2023-01-04T02:46:14.496Z,0.00
2023-01-04T02:47:17.711Z,0.00
2023-01-04T02:48:20.703Z,0.00
2023-01-04T02:49:24.286Z,0.14
2023-01-04T02:50:27.570Z,0.00
2023-01-04T02:51:30.644Z,0.00
2023-01-04T02:52:33.956Z,0.00
2023-01-04T02:53:37.315Z,0.00
2023-01-04T02:54:40.739Z,0.00
2023-01-04T02:55:44.294Z,0.00
2023-01-04T02:56:48.193Z,0.00
2023-01-04T02:57:51.369Z,0.00
2023-01-04T02:58:54.758Z,0.00
2023-01-04T02:59:58.516Z,0.00
2023-01-04T03:01:01.648Z,0.00
2023-01-04T03:02:04.950Z,0.00
2023-01-04T03:03:08.893Z,0.00
2023-01-04T03:04:12.561Z,0.00
2023-01-04T03:05:15.895Z,0.37
2023-01-04T03:06:19.004Z,0.57
2023-01-04T03:07:22.263Z,0.00
2023-01-04T03:08:25.444Z,0.00
2023-01-04T03:09:28.626Z,0.00
2023-01-04T03:10:32.128Z,0.00
2023-01-04T03:11:35.613Z,0.00
2023-01-04T03:12:39.195Z,0.00
2023-01-04T03:13:42.511Z,0.00
2023-01-04T03:14:45.780Z,0.14
2023-01-04T03:15:48.981Z,0.00
2023-01-04T03:16:52.129Z,0.00
2023-01-04T03:17:55.419Z,0.00
2023-01-04T03:18:58.711Z,0.00
2023-01-04T03:20:02.150Z,0.00
2023-01-04T03:21:05.773Z,0.00
2023-01-04T03:22:09.064Z,0.00
2023-01-04T03:23:12.354Z,0.00
2023-01-04T03:24:15.937Z,0.00
2023-01-04T03:25:22.394Z,0.00
2023-01-04T03:26:25.824Z,0.00
2023-01-04T03:27:29.212Z,0.00
2023-01-04T03:28:32.584Z,0.00
2023-01-04T03:29:36.092Z,0.00
2023-01-04T03:30:39.234Z,0.00
2023-01-04T03:31:42.929Z,0.00
2023-01-04T03:32:46.336Z,0.00
2023-01-04T03:33:49.357Z,0.00
2023-01-04T03:34:52.467Z,0.00
2023-01-04T03:35:55.674Z,0.00
2023-01-04T03:36:59.246Z,0.00
2023-01-04T03:38:02.521Z,0.00
2023-01-04T03:39:05.937Z,0.00
2023-01-04T03:40:09.425Z,0.00
2023-01-04T03:41:12.989Z,0.00
2023-01-04T03:42:16.185Z,0.00
2023-01-04T03:43:19.339Z,0.00
2023-01-04T03:44:22.541Z,0.00
2023-01-04T03:45:25.482Z,0.00
2023-01-04T03:46:28.628Z,0.00
2023-01-04T03:47:31.870Z,0.00
2023-01-04T03:48:36.104Z,0.00
2023-01-04T03:49:39.372Z,0.00
2023-01-04T03:50:42.545Z,0.00
2023-01-04T03:51:46.006Z,0.00
2023-01-04T03:52:49.182Z,0.00
2023-01-04T03:53:52.283Z,0.00
2023-01-04T03:54:55.972Z,0.00
2023-01-04T03:55:59.516Z,0.43
2023-01-04T03:57:02.792Z,0.71
2023-01-04T03:58:06.214Z,0.43
2023-01-04T03:59:09.535Z,1.00
2023-01-04T04:00:12.277Z,0.71
2023-01-04T04:01:15.036Z,1.00
2023-01-04T04:02:17.802Z,1.00
2023-01-04T04:03:20.688Z,0.67
2023-01-04T04:04:23.286Z,1.00
2023-01-04T04:05:25.939Z,1.00
2023-01-04T04:06:28.501Z,0.67
2023-01-04T04:07:31.038Z,0.67
2023-01-04T04:08:34.062Z,0.50
2023-01-04T04:09:36.632Z,1.00
2023-01-04T04:10:39.251Z,0.83
2023-01-04T04:11:41.906Z,0.43
2023-01-04T04:12:44.780Z,0.50
2023-01-04T04:13:47.844Z,1.00
2023-01-04T04:14:50.410Z,2.00
2023-01-04T04:15:53.166Z,1.83
2023-01-04T04:16:56.107Z,0.17
2023-01-04T04:17:59.027Z,0.43
2023-01-04T04:19:07.967Z,1.83
2023-01-04T04:20:06.021Z,1.50
2023-01-04T04:21:08.892Z,1.33
2023-01-04T04:22:11.764Z,2.43
2023-01-04T04:23:14.622Z,2.33
2023-01-04T04:24:17.531Z,1.00
2023-01-04T04:25:20.383Z,1.43
2023-01-04T04:26:23.252Z,1.67
2023-01-04T04:27:26.322Z,2.67
2023-01-04T04:28:29.002Z,2.29
2023-01-04T04:29:31.606Z,2.17
2023-01-04T04:30:34.568Z,1.67
2023-01-04T04:31:37.441Z,2.00
2023-01-04T04:32:40.432Z,2.00
2023-01-04T04:33:43.292Z,2.17
2023-01-04T04:34:46.155Z,2.17
2023-01-04T04:35:48.781Z,1.57
2023-01-04T04:36:51.753Z,1.33
2023-01-04T04:37:54.941Z,1.71
2023-01-04T04:38:57.570Z,2.00
2023-01-04T04:40:00.217Z,1.83
2023-01-04T04:41:02.916Z,1.33
2023-01-04T04:42:05.555Z,1.00
2023-01-04T04:43:08.180Z,0.67
2023-01-04T04:44:10.799Z,0.17
2023-01-04T04:45:13.447Z,1.00
2023-01-04T04:46:16.168Z,1.33
2023-01-04T04:47:18.956Z,0.67
2023-01-04T04:48:21.657Z,1.00
2023-01-04T04:49:24.316Z,1.00
2023-01-04T04:50:26.952Z,1.00
2023-01-04T04:51:29.549Z,0.33
2023-01-04T04:52:32.229Z,0.67
2023-01-04T04:53:34.864Z,1.00
2023-01-04T04:54:37.523Z,1.00
2023-01-04T04:55:43.193Z,0.67
2023-01-04T04:56:46.237Z,0.62
2023-01-04T04:57:48.855Z,1.00
2023-01-04T04:58:51.494Z,1.00
2023-01-04T04:59:54.112Z,1.00
2023-01-04T05:00:56.774Z,1.00
2023-01-04T05:01:59.499Z,1.33
2023-01-04T05:03:02.440Z,1.00
2023-01-04T05:04:05.243Z,0.67
2023-01-04T05:05:07.836Z,0.50
2023-01-04T05:06:10.850Z,1.00
2023-01-04T05:07:13.488Z,0.67
2023-01-04T05:08:16.135Z,0.33
2023-01-04T05:09:19.083Z,0.67
2023-01-04T05:10:21.916Z,1.43
2023-01-04T05:11:24.727Z,0.50
2023-01-04T05:12:27.306Z,1.29
2023-01-04T05:13:29.958Z,0.67
2023-01-04T05:14:32.819Z,1.17
2023-01-04T05:15:35.637Z,1.43
2023-01-04T05:16:38.391Z,1.33
2023-01-04T05:17:41.076Z,1.71
2023-01-04T05:18:43.938Z,1.33
2023-01-04T05:19:46.774Z,2.00
2023-01-04T05:20:49.562Z,1.33
2023-01-04T05:21:52.453Z,2.50
2023-01-04T05:22:55.342Z,1.67
2023-01-04T05:23:58.184Z,1.17
2023-01-04T05:25:00.883Z,1.43
2023-01-04T05:26:03.550Z,2.17
2023-01-04T05:27:06.415Z,2.00
2023-01-04T05:28:09.292Z,1.00
2023-01-04T05:29:12.128Z,2.00
2023-01-04T05:30:15.148Z,1.50
2023-01-04T05:31:17.983Z,2.00
2023-01-04T05:32:20.845Z,2.00
2023-01-04T05:33:23.674Z,2.00
2023-01-04T05:34:26.428Z,1.50
2023-01-04T05:35:29.207Z,2.43
2023-01-04T05:36:32.009Z,2.33
2023-01-04T05:37:35.094Z,3.00
2023-01-04T05:38:37.916Z,2.50
2023-01-04T05:39:40.863Z,2.17
2023-01-04T05:40:43.635Z,2.86
2023-01-04T05:41:46.269Z,3.00
2023-01-04T05:42:48.999Z,2.83
2023-01-04T05:43:52.023Z,2.67
2023-01-04T05:44:54.856Z,1.86
2023-01-04T05:45:57.663Z,2.00
2023-01-04T05:47:00.531Z,2.43
2023-01-04T05:48:03.351Z,2.67
2023-01-04T05:49:06.314Z,2.00
2023-01-04T05:50:09.236Z,2.33
2023-01-04T05:51:12.081Z,2.14
2023-01-04T05:52:14.697Z,2.00
2023-01-04T05:53:17.305Z,2.17
2023-01-04T05:54:21.643Z,2.67
2023-01-04T05:55:23.892Z,2.00
2023-01-04T05:56:26.563Z,2.50
2023-01-04T05:57:29.288Z,1.50
2023-01-04T05:58:32.158Z,1.67
2023-01-04T05:59:41.154Z,1.67
2023-01-04T06:00:39.219Z,1.00
2023-01-04T06:01:42.028Z,1.00
2023-01-04T06:02:45.105Z,0.33
2023-01-04T06:03:48.075Z,0.67
2023-01-04T06:04:58.207Z,0.17
2023-01-04T06:05:55.100Z,0.00
2023-01-04T06:06:58.118Z,0.00
2023-01-04T06:08:00.709Z,0.00
2023-01-04T06:09:03.290Z,0.00
2023-01-04T06:10:08.809Z,0.00
2023-01-04T06:11:11.553Z,0.00
2023-01-04T06:12:14.269Z,0.00
2023-01-04T06:13:17.069Z,0.00
2023-01-04T06:14:19.731Z,0.00
2023-01-04T06:15:22.508Z,0.00
2023-01-04T06:16:25.089Z,1.00
2023-01-04T06:17:27.861Z,0.00
2023-01-04T06:18:30.478Z,0.00
2023-01-04T06:19:33.125Z,0.33
2023-01-04T06:20:35.657Z,1.00
2023-01-04T06:21:38.388Z,1.00
2023-01-04T06:22:41.035Z,1.83
2023-01-04T06:23:43.857Z,2.43
2023-01-04T06:24:46.486Z,2.83
2023-01-04T06:25:49.039Z,2.67
2023-01-04T06:26:51.724Z,2.00
2023-01-04T06:27:54.628Z,2.67
2023-01-04T06:28:57.553Z,2.33
2023-01-04T06:30:00.262Z,1.67
2023-01-04T06:31:02.915Z,1.50
2023-01-04T06:32:05.725Z,1.33
2023-01-04T06:33:08.564Z,1.67
2023-01-04T06:34:11.456Z,0.43
2023-01-04T06:35:14.487Z,1.00
2023-01-04T06:36:19.783Z,0.71
2023-01-04T06:37:21.203Z,0.88
2023-01-04T06:38:23.885Z,0.33
2023-01-04T06:39:26.520Z,0.83
2023-01-04T06:40:29.315Z,1.00
2023-01-04T06:41:32.129Z,0.67
2023-01-04T06:42:35.013Z,0.57
2023-01-04T06:43:37.872Z,1.17
2023-01-04T06:44:40.492Z,1.00
2023-01-04T06:45:43.131Z,0.83
2023-01-04T06:46:45.769Z,1.00
2023-01-04T06:47:48.473Z,1.33
2023-01-04T06:48:51.412Z,1.00
2023-01-04T06:49:54.353Z,1.00
2023-01-04T06:50:57.070Z,0.83
2023-01-04T06:51:59.792Z,1.00
2023-01-04T06:53:02.578Z,1.00
2023-01-04T06:54:05.097Z,1.00
2023-01-04T06:55:08.047Z,1.00
2023-01-04T06:56:10.918Z,0.67
2023-01-04T06:57:13.552Z,0.43
2023-01-04T06:58:16.300Z,0.83
2023-01-04T06:59:19.328Z,1.00
2023-01-04T07:00:22.217Z,1.00
2023-01-04T07:01:25.162Z,0.71
2023-01-04T07:02:28.460Z,1.00
2023-01-04T07:03:31.419Z,1.00
2023-01-04T07:04:34.170Z,1.00
2023-01-04T07:05:36.748Z,1.00
2023-01-04T07:06:39.586Z,1.00
2023-01-04T07:07:42.426Z,1.00
2023-01-04T07:08:45.327Z,1.00
2023-01-04T07:09:48.069Z,1.00
2023-01-04T07:10:50.652Z,1.00
2023-01-04T07:11:53.516Z,0.83
2023-01-04T07:12:56.352Z,1.00
2023-01-04T07:14:04.035Z,1.00
2023-01-04T07:15:38.327Z,0.50
2023-01-04T07:16:11.016Z,0.37
2023-01-04T07:17:13.958Z,0.14
2023-01-04T07:18:16.869Z,0.00
2023-01-04T07:19:19.716Z,0.00
2023-01-04T07:20:22.353Z,0.00
2023-01-04T07:21:24.959Z,0.00
2023-01-04T07:22:27.860Z,0.00
2023-01-04T07:23:30.725Z,0.00
2023-01-04T07:24:33.615Z,0.00
2023-01-04T07:25:36.510Z,0.00
2023-01-04T07:26:39.205Z,0.00
2023-01-04T07:27:41.808Z,0.00
2023-01-04T07:28:44.497Z,0.00
2023-01-04T07:29:47.234Z,0.00
2023-01-04T07:30:49.870Z,0.00
2023-01-04T07:31:52.527Z,0.00
2023-01-04T07:32:55.688Z,0.00
2023-01-04T07:33:58.529Z,0.00
2023-01-04T07:35:01.399Z,0.00
2023-01-04T07:36:04.228Z,0.00
2023-01-04T07:37:07.165Z,0.00
2023-01-04T07:38:10.106Z,0.00
2023-01-04T07:39:12.794Z,0.00
2023-01-04T07:40:15.353Z,0.00
2023-01-04T07:41:17.947Z,0.00
2023-01-04T07:42:20.575Z,0.00
2023-01-04T07:43:27.976Z,0.00
2023-01-04T07:44:27.193Z,0.00
2023-01-04T07:45:29.834Z,0.00
2023-01-04T07:46:32.545Z,0.00
2023-01-04T07:47:35.216Z,0.00
2023-01-04T07:48:37.848Z,0.00
2023-01-04T07:49:40.496Z,0.00
2023-01-04T07:50:43.163Z,0.00
2023-01-04T07:51:45.859Z,0.00
2023-01-04T07:52:48.518Z,0.00
2023-01-04T07:53:51.214Z,0.00
2023-01-04T07:54:53.901Z,0.00
2023-01-04T07:55:56.961Z,0.00
2023-01-04T07:56:59.797Z,0.00
2023-01-04T07:58:02.469Z,0.00
2023-01-04T07:59:05.182Z,0.00
2023-01-04T08:00:07.772Z,0.86
2023-01-04T08:01:11.052Z,2.67
2023-01-04T08:02:14.041Z,3.14
2023-01-04T08:03:17.068Z,2.29
2023-01-04T08:04:19.883Z,2.50
2023-01-04T08:07:12.710Z,0.00
2023-01-04T08:08:16.196Z,0.00
2023-01-04T08:09:19.719Z,0.00
2023-01-04T08:10:23.295Z,0.00
2023-01-04T08:11:26.678Z,0.00
2023-01-04T08:12:30.149Z,0.00
2023-01-04T08:13:33.652Z,0.00
2023-01-04T08:14:36.784Z,0.00
2023-01-04T08:15:39.839Z,0.00
2023-01-04T08:16:43.359Z,0.00
2023-01-04T08:17:47.100Z,0.00
2023-01-04T08:18:50.576Z,0.00
2023-01-04T08:19:53.948Z,0.86
2023-01-04T08:20:58.727Z,1.29
2023-01-04T08:22:01.950Z,1.00
2023-01-04T08:23:04.962Z,1.00
2023-01-04T08:24:08.254Z,1.00
2023-01-04T08:25:11.602Z,1.00
2023-01-04T08:26:14.888Z,1.00
2023-01-04T08:27:18.266Z,1.00
2023-01-04T08:28:21.459Z,0.57
2023-01-04T08:29:28.069Z,0.00
2023-01-04T08:30:29.166Z,0.00
2023-01-04T08:31:32.206Z,0.00
2023-01-04T08:32:35.735Z,0.00
2023-01-04T08:33:39.206Z,0.00
2023-01-04T08:34:42.407Z,0.00
2023-01-04T08:35:45.794Z,0.00
2023-01-04T08:36:48.903Z,0.00
2023-01-04T08:37:52.250Z,0.00
2023-01-04T08:38:59.757Z,0.00
2023-01-04T08:39:59.843Z,0.00
2023-01-04T08:41:16.617Z,0.00
2023-01-04T08:42:20.256Z,0.00
2023-01-04T08:43:12.747Z,0.50
2023-01-04T08:44:16.150Z,0.14
2023-01-04T08:45:19.118Z,0.00
2023-01-04T08:46:22.643Z,0.00
2023-01-04T08:47:25.894Z,0.00
2023-01-04T08:48:28.976Z,0.00
2023-01-04T08:49:32.362Z,0.00
2023-01-04T08:50:35.549Z,0.33
2023-01-04T08:51:38.975Z,0.57
2023-01-04T08:52:42.527Z,0.00
2023-01-04T08:53:45.812Z,0.00
2023-01-04T08:54:51.953Z,0.00
2023-01-04T08:55:55.035Z,0.00
2023-01-04T08:56:58.747Z,0.00
2023-01-04T08:58:02.010Z,0.00
2023-01-04T08:59:05.295Z,0.00
2023-01-04T09:00:08.399Z,0.00
2023-01-04T09:01:11.584Z,0.00
2023-01-04T09:02:15.109Z,0.00
2023-01-04T09:03:18.416Z,0.00
2023-01-04T09:04:21.600Z,0.00
2023-01-04T09:05:24.724Z,0.00
2023-01-04T09:06:27.777Z,0.00
2023-01-04T09:07:30.989Z,0.00
2023-01-04T09:08:34.140Z,0.00
2023-01-04T09:09:37.349Z,0.00
2023-01-04T09:10:40.813Z,0.00
2023-01-04T09:11:43.997Z,0.00
2023-01-04T09:12:47.382Z,0.00
2023-01-04T09:13:50.568Z,0.00
2023-01-04T09:14:53.748Z,0.00
2023-01-04T09:15:57.152Z,0.00
2023-01-04T09:17:00.637Z,0.00
2023-01-04T09:18:30.918Z,0.00
2023-01-04T09:19:08.059Z,0.00
2023-01-04T09:20:11.605Z,0.00
2023-01-04T09:21:14.729Z,0.00
2023-01-04T09:22:17.786Z,0.00
2023-01-04T09:23:21.044Z,0.00
2023-01-04T09:24:24.252Z,0.00
2023-01-04T09:25:27.637Z,0.00
2023-01-04T09:26:30.972Z,0.00
2023-01-04T09:27:33.974Z,0.00
2023-01-04T09:28:37.227Z,0.00
2023-01-04T09:29:40.340Z,0.00
2023-01-04T09:30:43.694Z,0.00
2023-01-04T09:31:47.012Z,0.00
2023-01-04T09:32:50.204Z,0.00
2023-01-04T09:34:58.291Z,0.00
2023-01-04T09:36:01.349Z,0.00
2023-01-04T09:37:04.362Z,0.00
2023-01-04T09:38:10.359Z,0.00
2023-01-04T09:39:20.761Z,0.00
2023-01-04T09:40:18.603Z,0.00
2023-01-04T09:41:21.911Z,0.00
2023-01-04T09:42:25.008Z,0.00
2023-01-04T09:43:28.050Z,0.00
2023-01-04T09:45:03.052Z,0.00
2023-01-04T09:45:35.459Z,0.00
2023-01-04T09:46:38.577Z,0.00
2023-01-04T09:47:42.012Z,0.00
2023-01-04T09:48:45.289Z,0.00
2023-01-04T09:49:48.475Z,1.71
2023-01-04T09:50:51.679Z,13.71
2023-01-04T09:51:54.949Z,21.50
2023-01-04T09:52:58.013Z,16.14
2023-01-04T09:54:01.314Z,12.14
2023-01-04T09:55:40.989Z,7.14
2023-01-04T09:56:08.945Z,1.00
2023-01-04T09:57:15.157Z,0.00
2023-01-04T09:58:18.635Z,0.00
2023-01-04T09:59:21.613Z,0.00
2023-01-04T10:00:24.811Z,0.00
2023-01-04T10:01:28.181Z,0.00
2023-01-04T10:04:52.489Z,0.00
2023-01-04T10:05:55.653Z,0.00
2023-01-04T10:07:04.650Z,0.00
2023-01-04T10:08:03.560Z,0.00
2023-01-04T10:09:06.922Z,0.00
2023-01-04T10:10:10.236Z,0.43
2023-01-04T10:11:13.628Z,0.00
2023-01-04T10:12:16.811Z,0.00
2023-01-04T10:13:19.865Z,0.00
2023-01-04T10:14:22.999Z,0.00
2023-01-04T10:15:26.254Z,0.00
2023-01-04T10:17:01.158Z,0.00
2023-01-04T10:18:33.885Z,0.00
2023-01-04T10:21:52.008Z,0.00
2023-01-04T10:22:55.176Z,0.00
2023-01-04T10:23:58.584Z,0.00
2023-01-04T10:25:01.938Z,0.00
2023-01-04T10:26:05.128Z,0.00
2023-01-04T10:27:08.415Z,0.00
2023-01-04T10:28:11.456Z,0.00
2023-01-04T10:29:14.660Z,0.00
2023-01-04T10:30:18.082Z,0.00
2023-01-04T10:31:39.440Z,0.00
2023-01-04T10:32:25.685Z,0.00
2023-01-04T10:33:28.827Z,0.00
2023-01-04T10:34:32.120Z,0.00
2023-01-04T10:35:35.146Z,0.00
2023-01-04T10:36:38.162Z,0.00
2023-01-04T10:37:41.447Z,0.00
2023-01-04T10:38:44.433Z,0.00
2023-01-04T10:39:47.615Z,0.00
2023-01-04T10:40:51.294Z,0.00
2023-01-04T10:41:54.598Z,0.00
2023-01-04T10:42:57.996Z,0.00
2023-01-04T10:44:11.672Z,0.00
2023-01-04T10:45:08.883Z,0.00
2023-01-04T10:46:09.566Z,0.00
2023-01-04T10:47:12.727Z,0.00
2023-01-04T10:48:15.929Z,0.00
2023-01-04T10:49:19.237Z,0.00
2023-01-04T10:50:22.371Z,0.00
2023-01-04T10:51:25.578Z,0.00
2023-01-04T10:52:28.878Z,0.00
2023-01-04T10:53:31.814Z,0.00
2023-01-04T10:54:34.895Z,0.00
2023-01-04T10:55:37.965Z,0.00
2023-01-04T10:56:41.088Z,0.00
2023-01-04T10:57:44.378Z,0.00
2023-01-04T10:58:47.761Z,0.00
2023-01-04T10:59:51.046Z,0.00
2023-01-04T11:00:54.359Z,0.00
2023-01-04T11:01:57.938Z,0.00
2023-01-04T11:03:08.239Z,0.00
2023-01-04T11:04:06.010Z,0.00
2023-01-04T11:05:09.394Z,0.00
2023-01-04T11:06:12.791Z,0.00
2023-01-04T11:07:16.274Z,0.00
2023-01-04T11:08:19.367Z,0.00
2023-01-04T11:09:25.310Z,0.00
2023-01-04T11:10:26.722Z,0.00
2023-01-04T11:11:29.686Z,0.00
2023-01-04T11:12:32.670Z,0.00
2023-01-04T11:13:35.916Z,0.00
2023-01-04T11:14:39.061Z,0.00
2023-01-04T11:15:42.145Z,0.00
2023-01-04T11:16:45.308Z,0.00
2023-01-04T11:17:48.384Z,0.00
2023-01-04T11:18:51.799Z,0.00
2023-01-04T11:19:55.092Z,0.00
2023-01-04T11:20:58.193Z,0.00
2023-01-04T11:22:01.358Z,0.00
2023-01-04T11:23:04.669Z,0.00
2023-01-04T11:24:31.454Z,0.00
2023-01-04T11:26:16.520Z,0.00
2023-01-04T11:27:23.593Z,0.00
2023-01-04T11:28:23.600Z,0.00
2023-01-04T11:29:26.584Z,0.00
2023-01-04T11:30:29.577Z,0.00
2023-01-04T11:31:32.706Z,0.00
2023-01-04T11:32:35.954Z,0.00
2023-01-04T11:33:39.008Z,0.00
2023-01-04T11:34:42.122Z,0.00
2023-01-04T11:35:45.276Z,0.00
2023-01-04T11:36:48.849Z,0.00
2023-01-04T11:37:51.930Z,0.00
2023-01-04T11:38:55.479Z,0.00
2023-01-04T11:39:58.706Z,0.00
2023-01-04T11:41:01.933Z,0.00
2023-01-04T11:42:05.079Z,0.00
2023-01-04T11:43:08.251Z,0.00
2023-01-04T11:44:11.948Z,0.00
2023-01-04T11:45:15.128Z,0.00
2023-01-04T11:46:18.619Z,0.00
2023-01-04T11:47:23.225Z,0.00
2023-01-04T11:48:25.800Z,0.00
2023-01-04T11:49:28.891Z,0.00
2023-01-04T11:50:32.066Z,0.00
2023-01-04T11:51:35.163Z,0.00
2023-01-04T11:52:38.440Z,0.00
2023-01-04T11:53:41.625Z,0.00
2023-01-04T11:54:44.997Z,0.00
2023-01-04T11:55:48.189Z,0.00
2023-01-04T11:56:51.271Z,0.00
2023-01-04T11:57:54.451Z,0.00
2023-01-04T11:58:57.527Z,0.00
2023-01-04T12:00:00.906Z,0.00
2023-01-04T12:01:03.902Z,0.00
2023-01-04T12:02:06.986Z,0.00
2023-01-04T12:03:10.352Z,0.00
2023-01-04T12:04:13.737Z,0.00
2023-01-04T12:05:21.126Z,0.00
2023-01-04T12:06:21.264Z,0.00
2023-01-04T12:07:24.409Z,0.00
2023-01-04T12:08:27.393Z,0.00
2023-01-04T12:09:30.477Z,0.00
2023-01-04T12:10:33.547Z,0.00
2023-01-04T12:11:36.732Z,0.00
2023-01-04T12:12:39.901Z,0.00
2023-01-04T12:13:43.359Z,0.00
2023-01-04T12:14:46.881Z,0.00
2023-01-04T12:15:50.371Z,0.00
2023-01-04T12:16:53.957Z,0.00
2023-01-04T12:17:57.250Z,0.00
2023-01-04T12:19:00.424Z,0.00
2023-01-04T12:20:03.743Z,0.00
2023-01-04T12:21:07.610Z,0.00
2023-01-04T12:22:11.096Z,0.00
2023-01-04T12:23:14.385Z,0.00
2023-01-04T12:24:17.871Z,0.00
2023-01-04T12:25:20.958Z,0.00
2023-01-04T12:26:23.924Z,0.00
2023-01-04T12:27:27.015Z,0.00
2023-01-04T12:28:30.423Z,0.00
2023-01-04T12:29:33.380Z,0.00
2023-01-04T12:30:36.447Z,0.00
2023-01-04T12:31:39.648Z,0.00
2023-01-04T12:32:42.710Z,0.00
2023-01-04T12:33:46.001Z,0.00
2023-01-04T12:34:48.984Z,0.00
2023-01-04T12:35:52.270Z,0.00
2023-01-04T12:36:57.537Z,0.00
2023-01-04T12:37:59.910Z,0.00
2023-01-04T12:39:03.149Z,0.00
2023-01-04T12:40:06.216Z,0.00
2023-01-04T12:41:09.706Z,0.00
2023-01-04T12:42:13.212Z,0.00
2023-01-04T12:43:16.372Z,0.00
2023-01-04T12:44:19.758Z,0.00
2023-01-04T12:45:22.948Z,0.00
2023-01-04T12:46:26.210Z,0.00
2023-01-04T12:47:29.541Z,0.00
2023-01-04T12:48:32.701Z,0.00
2023-01-04T12:49:36.123Z,0.00
2023-01-04T12:50:43.764Z,0.00
2023-01-04T12:51:58.265Z,0.00
2023-01-04T12:53:10.754Z,0.00
2023-01-04T12:53:51.785Z,0.00
2023-01-04T12:54:55.375Z,0.00
2023-01-04T12:55:58.571Z,0.00
2023-01-04T12:57:01.949Z,0.00
2023-01-04T12:58:05.218Z,0.00
2023-01-04T13:00:12.410Z,0.00
2023-01-04T13:01:15.547Z,0.00
2023-01-04T13:02:19.078Z,0.00
2023-01-04T13:03:25.062Z,0.00
2023-01-04T13:04:28.312Z,0.00
2023-01-04T13:06:36.313Z,0.00
2023-01-04T13:07:39.586Z,0.00
2023-01-04T13:08:42.773Z,0.00
2023-01-04T13:09:48.374Z,0.00
2023-01-04T13:10:50.325Z,0.00
2023-01-04T13:11:54.166Z,0.00
2023-01-04T13:12:57.572Z,0.00
2023-01-04T13:14:01.142Z,0.00
2023-01-04T13:15:04.327Z,0.00
2023-01-04T13:16:07.501Z,0.00
2023-01-04T13:17:10.783Z,0.00
2023-01-04T13:18:14.095Z,0.00
2023-01-04T13:19:17.362Z,0.00
2023-01-04T13:20:20.656Z,0.00
2023-01-04T13:21:23.875Z,0.00
2023-01-04T13:22:29.254Z,0.00
2023-01-04T13:23:31.421Z,0.00
2023-01-04T13:24:34.842Z,0.00
2023-01-04T13:25:38.195Z,0.00
2023-01-04T13:26:41.573Z,0.00
2023-01-04T13:27:44.753Z,0.00
2023-01-04T13:28:50.255Z,0.00
2023-01-04T13:29:52.466Z,0.00
2023-01-04T13:30:55.790Z,0.00
2023-01-04T13:31:58.914Z,0.00
2023-01-04T13:33:25.545Z,0.00
2023-01-04T13:34:06.310Z,0.00
2023-01-04T13:35:13.671Z,0.00
2023-01-04T13:36:14.216Z,0.00
2023-01-04T13:37:17.289Z,0.00
2023-01-04T13:38:20.366Z,0.00
2023-01-04T13:39:23.474Z,0.00
2023-01-04T13:40:26.747Z,0.00
2023-01-04T13:41:30.028Z,0.00
2023-01-04T13:42:33.217Z,0.00
2023-01-04T13:43:36.484Z,0.00
2023-01-04T13:45:09.156Z,0.00
2023-01-04T13:45:44.162Z,0.00
2023-01-04T13:46:47.399Z,0.00
2023-01-04T13:47:50.553Z,0.00
2023-01-04T13:48:53.625Z,0.00
2023-01-04T13:49:56.856Z,0.00
2023-01-04T13:51:00.045Z,0.33
2023-01-04T13:52:34.216Z,0.67
2023-01-04T13:53:09.123Z,0.00
2023-01-04T13:54:12.302Z,0.00
2023-01-04T13:55:15.816Z,0.00
2023-01-04T13:56:19.196Z,0.00
2023-01-04T13:57:22.246Z,0.00
2023-01-04T13:58:25.436Z,0.00
2023-01-04T13:59:28.513Z,0.00
2023-01-04T14:00:33.713Z,0.57
2023-01-04T14:01:36.068Z,0.00
2023-01-04T14:02:39.402Z,0.00
2023-01-04T14:03:42.866Z,0.00
2023-01-04T14:04:46.069Z,0.00
2023-01-04T14:05:49.261Z,0.00
2023-01-04T14:06:52.536Z,0.00
2023-01-04T14:07:55.521Z,0.00
2023-01-04T14:08:58.592Z,0.00
2023-01-04T14:10:01.677Z,0.00
2023-01-04T14:11:04.737Z,0.00
2023-01-04T14:12:08.612Z,0.00
2023-01-04T14:13:12.031Z,0.00
2023-01-04T14:14:15.230Z,0.00
2023-01-04T14:15:18.491Z,0.00
2023-01-04T14:16:21.958Z,0.00
2023-01-04T14:17:25.170Z,0.00
2023-01-04T14:18:28.256Z,0.43
2023-01-04T14:19:31.368Z,0.57
2023-01-04T14:20:34.721Z,0.00
2023-01-04T14:21:37.903Z,0.00